sensor_id;sensor_type;location;lat;lon;timestamp;pressure;altitude;pressure_sealevel;temperature;humidity
20394;BME280;10356;50.544;9.642;2022-09-02T00:00:59;98490.28;;;12.58;69.77
20394;BME280;10356;50.544;9.642;2022-09-02T00:03:27;98483.84;;;12.62;69.65
20394;BME280;10356;50.544;9.642;2022-09-02T00:05:56;98481.13;;;12.64;69.61
20394;BME280;10356;50.544;9.642;2022-09-02T00:08:22;98482.06;;;12.63;69.61
20394;BME280;10356;50.544;9.642;2022-09-02T00:10:49;98478.88;;;12.59;69.99
20394;BME280;10356;50.544;9.642;2022-09-02T00:13:17;98482.72;;;12.55;70.31
20394;BME280;10356;50.544;9.642;2022-09-02T00:15:45;98481.53;;;12.48;70.65
20394;BME280;10356;50.544;9.642;2022-09-02T00:18:12;98477.06;;;12.39;71.02
20394;BME280;10356;50.544;9.642;2022-09-02T00:20:40;98481.13;;;12.32;71.30
20394;BME280;10356;50.544;9.642;2022-09-02T00:23:08;98478.28;;;12.24;72.07
20394;BME280;10356;50.544;9.642;2022-09-02T00:25:36;98485.19;;;12.25;71.87
20394;BME280;10356;50.544;9.642;2022-09-02T00:28:02;98480.19;;;12.22;71.92
20394;BME280;10356;50.544;9.642;2022-09-02T00:30:29;98483.22;;;12.18;72.11
20394;BME280;10356;50.544;9.642;2022-09-02T00:32:56;98480.69;;;12.16;72.12
20394;BME280;10356;50.544;9.642;2022-09-02T00:35:22;98474.75;;;12.14;72.42
20394;BME280;10356;50.544;9.642;2022-09-02T00:37:49;98481.19;;;12.10;72.40
20394;BME280;10356;50.544;9.642;2022-09-02T00:40:17;98476.78;;;12.11;72.55
20394;BME280;10356;50.544;9.642;2022-09-02T00:42:43;98471.69;;;12.09;72.85
20394;BME280;10356;50.544;9.642;2022-09-02T00:45:10;98470.03;;;12.08;72.88
20394;BME280;10356;50.544;9.642;2022-09-02T00:47:37;98473.47;;;12.09;72.77
20394;BME280;10356;50.544;9.642;2022-09-02T00:50:07;98470.16;;;12.07;72.64
20394;BME280;10356;50.544;9.642;2022-09-02T00:52:37;98464.09;;;12.06;72.93
20394;BME280;10356;50.544;9.642;2022-09-02T00:55:11;98464.94;;;12.07;72.92
20394;BME280;10356;50.544;9.642;2022-09-02T00:57:43;98464.94;;;12.07;72.86
20394;BME280;10356;50.544;9.642;2022-09-02T01:00:14;98459.84;;;12.05;72.72
20394;BME280;10356;50.544;9.642;2022-09-02T01:02:43;98459.38;;;12.00;72.88
20394;BME280;10356;50.544;9.642;2022-09-02T01:05:13;98458.31;;;12.03;73.08
20394;BME280;10356;50.544;9.642;2022-09-02T01:07:42;98457.72;;;11.99;73.96
20394;BME280;10356;50.544;9.642;2022-09-02T01:10:13;98454.97;;;12.01;73.72
20394;BME280;10356;50.544;9.642;2022-09-02T01:12:41;98458.66;;;11.98;73.70
20394;BME280;10356;50.544;9.642;2022-09-02T01:15:10;98456.31;;;11.95;73.55
20394;BME280;10356;50.544;9.642;2022-09-02T01:17:40;98455.34;;;11.96;73.58
20394;BME280;10356;50.544;9.642;2022-09-02T01:20:11;98462.38;;;11.96;73.84
20394;BME280;10356;50.544;9.642;2022-09-02T01:22:40;98458.22;;;11.93;74.27
20394;BME280;10356;50.544;9.642;2022-09-02T01:25:11;98454.63;;;11.94;74.07
20394;BME280;10356;50.544;9.642;2022-09-02T01:27:39;98449.09;;;11.88;73.76
20394;BME280;10356;50.544;9.642;2022-09-02T01:30:09;98442.31;;;11.85;73.95
20394;BME280;10356;50.544;9.642;2022-09-02T01:32:36;98443.59;;;11.91;73.86
20394;BME280;10356;50.544;9.642;2022-09-02T01:35:03;98447.69;;;11.84;74.05
20394;BME280;10356;50.544;9.642;2022-09-02T01:37:30;98446.84;;;11.83;74.13
20394;BME280;10356;50.544;9.642;2022-09-02T01:39:59;98448.50;;;11.73;74.62
20394;BME280;10356;50.544;9.642;2022-09-02T01:42:25;98449.44;;;11.72;75.09
20394;BME280;10356;50.544;9.642;2022-09-02T01:44:52;98452.19;;;11.70;75.03
20394;BME280;10356;50.544;9.642;2022-09-02T01:47:21;98440.91;;;11.70;74.88
20394;BME280;10356;50.544;9.642;2022-09-02T01:49:49;98442.72;;;11.69;74.78
20394;BME280;10356;50.544;9.642;2022-09-02T01:52:17;98445.88;;;11.62;75.16
20394;BME280;10356;50.544;9.642;2022-09-02T01:54:44;98441.84;;;11.58;75.62
20394;BME280;10356;50.544;9.642;2022-09-02T01:57:12;98436.63;;;11.58;75.42
20394;BME280;10356;50.544;9.642;2022-09-02T01:59:39;98442.09;;;11.55;75.51
20394;BME280;10356;50.544;9.642;2022-09-02T02:02:08;98434.75;;;11.49;76.14
20394;BME280;10356;50.544;9.642;2022-09-02T02:04:34;98433.78;;;11.50;76.17
20394;BME280;10356;50.544;9.642;2022-09-02T02:07:01;98426.22;;;11.47;76.27
20394;BME280;10356;50.544;9.642;2022-09-02T02:09:27;98428.44;;;11.51;76.00
20394;BME280;10356;50.544;9.642;2022-09-02T02:11:54;98431.19;;;11.50;76.00
20394;BME280;10356;50.544;9.642;2022-09-02T02:14:22;98430.72;;;11.45;76.21
20394;BME280;10356;50.544;9.642;2022-09-02T02:16:49;98430.94;;;11.42;76.33
20394;BME280;10356;50.544;9.642;2022-09-02T02:19:16;98432.63;;;11.43;76.48
20394;BME280;10356;50.544;9.642;2022-09-02T02:21:42;98430.47;;;11.48;76.42
20394;BME280;10356;50.544;9.642;2022-09-02T02:24:09;98427.84;;;11.48;76.44
20394;BME280;10356;50.544;9.642;2022-09-02T02:26:35;98427.72;;;11.49;76.50
20394;BME280;10356;50.544;9.642;2022-09-02T02:29:02;98430.25;;;11.51;76.43
20394;BME280;10356;50.544;9.642;2022-09-02T02:31:30;98426.44;;;11.55;76.22
20394;BME280;10356;50.544;9.642;2022-09-02T02:33:57;98416.47;;;11.49;76.87
20394;BME280;10356;50.544;9.642;2022-09-02T02:36:24;98424.06;;;11.52;76.80
20394;BME280;10356;50.544;9.642;2022-09-02T02:38:51;98425.59;;;11.54;76.83
20394;BME280;10356;50.544;9.642;2022-09-02T02:41:17;98424.75;;;11.54;77.03
20394;BME280;10356;50.544;9.642;2022-09-02T02:43:45;98422.88;;;11.56;76.99
20394;BME280;10356;50.544;9.642;2022-09-02T02:46:12;98429.50;;;11.60;77.15
20394;BME280;10356;50.544;9.642;2022-09-02T02:48:41;98419.31;;;11.57;77.19
20394;BME280;10356;50.544;9.642;2022-09-02T02:51:08;98422.63;;;11.59;76.60
20394;BME280;10356;50.544;9.642;2022-09-02T02:53:34;98420.75;;;11.61;76.53
20394;BME280;10356;50.544;9.642;2022-09-02T02:56:02;98422.63;;;11.59;76.68
20394;BME280;10356;50.544;9.642;2022-09-02T02:58:29;98417.16;;;11.62;76.48
20394;BME280;10356;50.544;9.642;2022-09-02T03:00:56;98424.28;;;11.60;77.25
20394;BME280;10356;50.544;9.642;2022-09-02T03:03:23;98417.06;;;11.63;76.71
20394;BME280;10356;50.544;9.642;2022-09-02T03:05:52;98419.31;;;11.68;76.28
20394;BME280;10356;50.544;9.642;2022-09-02T03:08:20;98417.53;;;11.68;75.60
20394;BME280;10356;50.544;9.642;2022-09-02T03:10:47;98413.16;;;11.69;75.70
20394;BME280;10356;50.544;9.642;2022-09-02T03:13:19;98416.47;;;11.60;75.97
20394;BME280;10356;50.544;9.642;2022-09-02T03:15:47;98413.63;;;11.63;75.76
20394;BME280;10356;50.544;9.642;2022-09-02T03:18:13;98414.09;;;11.68;76.12
20394;BME280;10356;50.544;9.642;2022-09-02T03:20:40;98418.84;;;11.63;76.49
20394;BME280;10356;50.544;9.642;2022-09-02T03:23:09;98412.44;;;11.56;76.60
20394;BME280;10356;50.544;9.642;2022-09-02T03:25:37;98416.81;;;11.55;76.54
20394;BME280;10356;50.544;9.642;2022-09-02T03:28:06;98412.19;;;11.59;76.50
20394;BME280;10356;50.544;9.642;2022-09-02T03:30:33;98414.19;;;11.55;76.76
20394;BME280;10356;50.544;9.642;2022-09-02T03:33:01;98413.50;;;11.53;77.36
20394;BME280;10356;50.544;9.642;2022-09-02T03:35:30;98410.78;;;11.55;77.29
20394;BME280;10356;50.544;9.642;2022-09-02T03:37:58;98410.53;;;11.58;77.16
20394;BME280;10356;50.544;9.642;2022-09-02T03:40:27;98414.31;;;11.54;77.38
20394;BME280;10356;50.544;9.642;2022-09-02T03:42:53;98419.53;;;11.54;77.44
20394;BME280;10356;50.544;9.642;2022-09-02T03:45:20;98413.38;;;11.55;77.16
20394;BME280;10356;50.544;9.642;2022-09-02T03:47:48;98411.50;;;11.57;77.14
20394;BME280;10356;50.544;9.642;2022-09-02T03:50:19;98409.47;;;11.60;76.96
20394;BME280;10356;50.544;9.642;2022-09-02T03:52:46;98415.25;;;11.64;76.90
20394;BME280;10356;50.544;9.642;2022-09-02T03:55:13;98414.09;;;11.68;76.67
20394;BME280;10356;50.544;9.642;2022-09-02T03:57:41;98417.41;;;11.59;77.74
20394;BME280;10356;50.544;9.642;2022-09-02T04:00:10;98410.44;;;11.59;77.09
20394;BME280;10356;50.544;9.642;2022-09-02T04:02:37;98406.50;;;11.65;76.36
20394;BME280;10356;50.544;9.642;2022-09-02T04:05:05;98411.94;;;11.62;76.33
20394;BME280;10356;50.544;9.642;2022-09-02T04:07:31;98412.19;;;11.59;76.29
20394;BME280;10356;50.544;9.642;2022-09-02T04:10:00;98417.66;;;11.56;76.41
20394;BME280;10356;50.544;9.642;2022-09-02T04:12:27;98410.06;;;11.53;76.55
20394;BME280;10356;50.544;9.642;2022-09-02T04:14:55;98404.94;;;11.51;76.43
20394;BME280;10356;50.544;9.642;2022-09-02T04:20:49;98399.63;;;11.42;76.52
20394;BME280;10356;50.544;9.642;2022-09-02T04:23:15;98399.41;;;11.34;77.21
20394;BME280;10356;50.544;9.642;2022-09-02T04:25:43;98399.66;;;11.31;77.40
20394;BME280;10356;50.544;9.642;2022-09-02T04:28:09;98404.38;;;11.26;77.92
20394;BME280;10356;50.544;9.642;2022-09-02T04:30:39;98400.63;;;11.19;78.56
20394;BME280;10356;50.544;9.642;2022-09-02T04:33:05;98410.34;;;11.17;78.74
20394;BME280;10356;50.544;9.642;2022-09-02T04:35:32;98406.75;;;11.18;78.80
20394;BME280;10356;50.544;9.642;2022-09-02T04:38:00;98401.31;;;11.21;78.65
20394;BME280;10356;50.544;9.642;2022-09-02T04:40:27;98412.56;;;11.21;78.54
20394;BME280;10356;50.544;9.642;2022-09-02T04:42:53;98406.88;;;11.27;78.70
20394;BME280;10356;50.544;9.642;2022-09-02T04:45:20;98412.00;;;11.29;78.70
20394;BME280;10356;50.544;9.642;2022-09-02T04:47:48;98409.13;;;11.32;78.56
20394;BME280;10356;50.544;9.642;2022-09-02T04:50:15;98414.94;;;11.35;78.68
20394;BME280;10356;50.544;9.642;2022-09-02T04:52:41;98409.13;;;11.43;78.38
20394;BME280;10356;50.544;9.642;2022-09-02T04:55:09;98409.84;;;11.45;78.52
20394;BME280;10356;50.544;9.642;2022-09-02T04:57:35;98410.16;;;11.51;78.04
20394;BME280;10356;50.544;9.642;2022-09-02T05:00:03;98414.31;;;11.54;77.79
20394;BME280;10356;50.544;9.642;2022-09-02T05:02:30;98413.03;;;11.59;77.70
20394;BME280;10356;50.544;9.642;2022-09-02T05:04:58;98411.72;;;11.65;77.75
20394;BME280;10356;50.544;9.642;2022-09-02T05:07:25;98416.00;;;11.66;77.81
20394;BME280;10356;50.544;9.642;2022-09-02T05:09:55;98419.66;;;11.74;77.34
20394;BME280;10356;50.544;9.642;2022-09-02T05:12:22;98422.16;;;11.76;77.38
20394;BME280;10356;50.544;9.642;2022-09-02T05:14:48;98422.97;;;11.88;76.67
20394;BME280;10356;50.544;9.642;2022-09-02T05:17:15;98428.19;;;11.88;76.54
20394;BME280;10356;50.544;9.642;2022-09-02T05:19:41;98421.88;;;11.90;76.30
20394;BME280;10356;50.544;9.642;2022-09-02T05:22:09;98426.03;;;11.93;76.37
20394;BME280;10356;50.544;9.642;2022-09-02T05:24:36;98417.97;;;11.96;76.47
20394;BME280;10356;50.544;9.642;2022-09-02T05:27:03;98417.09;;;12.06;75.92
20394;BME280;10356;50.544;9.642;2022-09-02T05:29:29;98418.41;;;12.12;75.77
20394;BME280;10356;50.544;9.642;2022-09-02T05:31:56;98419.66;;;12.17;75.54
20394;BME280;10356;50.544;9.642;2022-09-02T05:34:22;98424.41;;;12.23;75.51
20394;BME280;10356;50.544;9.642;2022-09-02T05:36:49;98422.69;;;12.33;75.51
20394;BME280;10356;50.544;9.642;2022-09-02T05:39:17;98425.38;;;12.43;74.51
20394;BME280;10356;50.544;9.642;2022-09-02T05:41:43;98416.34;;;12.47;73.79
20394;BME280;10356;50.544;9.642;2022-09-02T05:44:10;98422.97;;;12.51;73.86
20394;BME280;10356;50.544;9.642;2022-09-02T05:46:37;98417.41;;;12.44;74.92
20394;BME280;10356;50.544;9.642;2022-09-02T05:49:04;98423.13;;;12.38;75.32
20394;BME280;10356;50.544;9.642;2022-09-02T05:51:32;98419.06;;;12.45;74.07
20394;BME280;10356;50.544;9.642;2022-09-02T05:53:59;98425.44;;;12.52;73.74
20394;BME280;10356;50.544;9.642;2022-09-02T05:56:27;98416.19;;;12.48;73.17
20394;BME280;10356;50.544;9.642;2022-09-02T05:58:55;98412.13;;;12.55;72.72
20394;BME280;10356;50.544;9.642;2022-09-02T06:01:23;98421.13;;;12.62;72.38
20394;BME280;10356;50.544;9.642;2022-09-02T06:03:50;98417.47;;;12.75;71.95
20394;BME280;10356;50.544;9.642;2022-09-02T06:06:18;98415.50;;;12.88;71.81
20394;BME280;10356;50.544;9.642;2022-09-02T06:08:48;98415.91;;;13.04;71.23
20394;BME280;10356;50.544;9.642;2022-09-02T06:11:15;98419.97;;;13.17;70.67
20394;BME280;10356;50.544;9.642;2022-09-02T06:13:43;98415.84;;;13.15;70.78
20394;BME280;10356;50.544;9.642;2022-09-02T06:16:13;98427.03;;;13.26;70.51
20394;BME280;10356;50.544;9.642;2022-09-02T06:18:40;98421.81;;;13.26;69.69
20394;BME280;10356;50.544;9.642;2022-09-02T06:21:06;98418.28;;;13.37;69.11
20394;BME280;10356;50.544;9.642;2022-09-02T06:23:35;98423.00;;;13.53;68.82
20394;BME280;10356;50.544;9.642;2022-09-02T06:26:03;98424.41;;;13.66;68.31
20394;BME280;10356;50.544;9.642;2022-09-02T06:28:30;98416.03;;;13.72;68.23
20394;BME280;10356;50.544;9.642;2022-09-02T06:30:58;98416.63;;;13.85;67.38
20394;BME280;10356;50.544;9.642;2022-09-02T06:33:25;98417.31;;;13.97;66.86
20394;BME280;10356;50.544;9.642;2022-09-02T06:35:51;98418.16;;;14.16;66.58
20394;BME280;10356;50.544;9.642;2022-09-02T06:38:18;98417.63;;;14.22;66.01
20394;BME280;10356;50.544;9.642;2022-09-02T06:40:46;98412.81;;;14.27;65.75
20394;BME280;10356;50.544;9.642;2022-09-02T06:43:13;98417.91;;;14.39;65.47
20394;BME280;10356;50.544;9.642;2022-09-02T06:45:41;98415.56;;;14.55;64.82
20394;BME280;10356;50.544;9.642;2022-09-02T06:48:09;98415.44;;;14.66;64.39
20394;BME280;10356;50.544;9.642;2022-09-02T06:50:37;98415.69;;;14.82;63.77
20394;BME280;10356;50.544;9.642;2022-09-02T06:53:04;98419.38;;;14.98;63.27
20394;BME280;10356;50.544;9.642;2022-09-02T06:55:34;98412.28;;;15.18;62.71
20394;BME280;10356;50.544;9.642;2022-09-02T06:58:01;98419.69;;;15.32;61.72
20394;BME280;10356;50.544;9.642;2022-09-02T07:00:27;98407.78;;;15.47;62.04
20394;BME280;10356;50.544;9.642;2022-09-02T07:02:56;98412.63;;;15.69;60.78
20394;BME280;10356;50.544;9.642;2022-09-02T07:05:37;98405.38;;;15.81;60.46
20394;BME280;10356;50.544;9.642;2022-09-02T07:08:04;98410.81;;;15.97;59.30
20394;BME280;10356;50.544;9.642;2022-09-02T07:10:31;98415.13;;;16.16;59.46
20394;BME280;10356;50.544;9.642;2022-09-02T07:12:57;98415.03;;;16.43;58.90
20394;BME280;10356;50.544;9.642;2022-09-02T07:15:24;98409.56;;;16.54;57.82
20394;BME280;10356;50.544;9.642;2022-09-02T07:17:51;98412.69;;;16.75;56.65
20394;BME280;10356;50.544;9.642;2022-09-02T07:20:18;98401.34;;;17.00;57.76
20394;BME280;10356;50.544;9.642;2022-09-02T07:22:46;98407.78;;;17.31;55.16
20394;BME280;10356;50.544;9.642;2022-09-02T07:25:14;98417.13;;;17.51;54.75
20394;BME280;10356;50.544;9.642;2022-09-02T07:27:41;98408.13;;;18.20;54.02
20394;BME280;10356;50.544;9.642;2022-09-02T07:30:10;98406.53;;;18.59;52.46
20394;BME280;10356;50.544;9.642;2022-09-02T07:32:37;98407.78;;;19.11;51.41
20394;BME280;10356;50.544;9.642;2022-09-02T07:35:05;98411.00;;;19.54;48.69
20394;BME280;10356;50.544;9.642;2022-09-02T07:37:32;98401.97;;;19.79;48.26
20394;BME280;10356;50.544;9.642;2022-09-02T07:40:01;98399.78;;;20.13;47.40
20394;BME280;10356;50.544;9.642;2022-09-02T07:42:29;98406.22;;;19.88;47.58
20394;BME280;10356;50.544;9.642;2022-09-02T07:44:55;98406.88;;;19.59;48.07
20394;BME280;10356;50.544;9.642;2022-09-02T07:47:22;98399.75;;;19.52;49.08
20394;BME280;10356;50.544;9.642;2022-09-02T07:49:48;98404.94;;;19.21;48.85
20394;BME280;10356;50.544;9.642;2022-09-02T07:52:15;98404.94;;;19.29;49.40
20394;BME280;10356;50.544;9.642;2022-09-02T07:54:42;98394.69;;;19.42;49.21
20394;BME280;10356;50.544;9.642;2022-09-02T07:57:10;98399.44;;;19.55;49.44
20394;BME280;10356;50.544;9.642;2022-09-02T07:59:37;98403.44;;;19.43;48.64
20394;BME280;10356;50.544;9.642;2022-09-02T08:02:03;98391.28;;;19.64;48.25
20394;BME280;10356;50.544;9.642;2022-09-02T08:04:30;98393.50;;;20.14;47.87
20394;BME280;10356;50.544;9.642;2022-09-02T08:06:56;98395.41;;;20.28;46.40
20394;BME280;10356;50.544;9.642;2022-09-02T08:09:23;98395.91;;;20.69;46.11
20394;BME280;10356;50.544;9.642;2022-09-02T08:11:50;98391.38;;;20.77;45.51
20394;BME280;10356;50.544;9.642;2022-09-02T08:14:21;98391.41;;;20.55;46.22
20394;BME280;10356;50.544;9.642;2022-09-02T08:16:48;98390.56;;;20.77;44.75
20394;BME280;10356;50.544;9.642;2022-09-02T08:19:15;98386.34;;;21.05;44.06
20394;BME280;10356;50.544;9.642;2022-09-02T08:21:43;98389.00;;;21.20;43.67
20394;BME280;10356;50.544;9.642;2022-09-02T08:24:10;98392.75;;;21.69;42.62
20394;BME280;10356;50.544;9.642;2022-09-02T08:26:36;98379.63;;;21.97;42.77
20394;BME280;10356;50.544;9.642;2022-09-02T08:29:03;98386.22;;;21.71;43.02
20394;BME280;10356;50.544;9.642;2022-09-02T08:31:32;98386.19;;;21.36;43.38
20394;BME280;10356;50.544;9.642;2022-09-02T08:33:58;98385.47;;;22.07;42.49
20394;BME280;10356;50.544;9.642;2022-09-02T08:36:25;98383.00;;;22.47;41.38
20394;BME280;10356;50.544;9.642;2022-09-02T08:38:52;98373.97;;;22.42;40.65
20394;BME280;10356;50.544;9.642;2022-09-02T08:41:22;98384.09;;;22.32;41.01
20394;BME280;10356;50.544;9.642;2022-09-02T08:43:50;98378.97;;;22.51;41.09
20394;BME280;10356;50.544;9.642;2022-09-02T08:46:20;98377.53;;;21.92;42.11
20394;BME280;10356;50.544;9.642;2022-09-02T08:48:54;98378.03;;;21.81;42.23
20394;BME280;10356;50.544;9.642;2022-09-02T08:51:26;98372.06;;;22.57;41.96
20394;BME280;10356;50.544;9.642;2022-09-02T08:53:57;98365.53;;;23.36;41.30
20394;BME280;10356;50.544;9.642;2022-09-02T08:56:26;98359.78;;;23.73;39.49
20394;BME280;10356;50.544;9.642;2022-09-02T08:58:53;98352.84;;;23.92;38.94
20394;BME280;10356;50.544;9.642;2022-09-02T09:01:26;98352.31;;;23.49;39.07
20394;BME280;10356;50.544;9.642;2022-09-02T09:04:14;98348.69;;;23.70;38.41
20394;BME280;10356;50.544;9.642;2022-09-02T09:06:51;98343.78;;;24.34;37.44
20394;BME280;10356;50.544;9.642;2022-09-02T09:09:24;98340.13;;;24.74;36.95
20394;BME280;10356;50.544;9.642;2022-09-02T09:12:01;98332.09;;;24.93;36.72
20394;BME280;10356;50.544;9.642;2022-09-02T09:14:34;98338.59;;;25.17;36.02
20394;BME280;10356;50.544;9.642;2022-09-02T09:17:10;98340.97;;;25.51;35.21
20394;BME280;10356;50.544;9.642;2022-09-02T09:19:47;98337.78;;;25.80;34.00
20394;BME280;10356;50.544;9.642;2022-09-02T09:22:17;98334.88;;;25.89;33.75
20394;BME280;10356;50.544;9.642;2022-09-02T09:24:45;98329.06;;;25.60;31.70
20394;BME280;10356;50.544;9.642;2022-09-02T09:27:14;98333.47;;;25.22;31.29
20394;BME280;10356;50.544;9.642;2022-09-02T09:29:41;98339.81;;;25.41;32.38
20394;BME280;10356;50.544;9.642;2022-09-02T09:32:16;98340.34;;;26.07;31.43
20394;BME280;10356;50.544;9.642;2022-09-02T09:34:56;98333.22;;;26.32;31.15
20394;BME280;10356;50.544;9.642;2022-09-02T09:37:34;98330.69;;;26.37;31.14
20394;BME280;10356;50.544;9.642;2022-09-02T09:40:20;98333.91;;;26.14;30.57
20394;BME280;10356;50.544;9.642;2022-09-02T09:42:50;98329.66;;;26.07;30.23
20394;BME280;10356;50.544;9.642;2022-09-02T09:45:24;98334.09;;;25.82;30.74
20394;BME280;10356;50.544;9.642;2022-09-02T09:48:17;98319.66;;;25.96;31.00
20394;BME280;10356;50.544;9.642;2022-09-02T09:50:46;98326.00;;;25.50;30.97
20394;BME280;10356;50.544;9.642;2022-09-02T09:53:14;98322.75;;;25.42;30.98
20394;BME280;10356;50.544;9.642;2022-09-02T09:55:50;98315.81;;;25.78;29.67
20394;BME280;10356;50.544;9.642;2022-09-02T09:58:18;98316.91;;;26.09;29.93
20394;BME280;10356;50.544;9.642;2022-09-02T10:00:45;98322.38;;;25.83;30.04
20394;BME280;10356;50.544;9.642;2022-09-02T10:03:21;98316.75;;;25.97;30.01
20394;BME280;10356;50.544;9.642;2022-09-02T10:05:53;98316.84;;;26.22;29.82
20394;BME280;10356;50.544;9.642;2022-09-02T10:08:22;98314.63;;;25.68;29.67
20394;BME280;10356;50.544;9.642;2022-09-02T10:10:58;98309.31;;;25.61;29.24
20394;BME280;10356;50.544;9.642;2022-09-02T10:13:28;98310.59;;;24.82;29.98
20394;BME280;10356;50.544;9.642;2022-09-02T10:18:57;98309.63;;;25.40;30.26
20394;BME280;10356;50.544;9.642;2022-09-02T10:21:43;98301.19;;;25.43;30.29
20394;BME280;10356;50.544;9.642;2022-09-02T10:24:28;98292.16;;;25.44;29.85
20394;BME280;10356;50.544;9.642;2022-09-02T10:27:04;98290.50;;;25.50;29.49
20394;BME280;10356;50.544;9.642;2022-09-02T10:29:42;98292.44;;;25.74;29.86
20394;BME280;10356;50.544;9.642;2022-09-02T10:32:26;98289.50;;;25.38;29.57
20394;BME280;10356;50.544;9.642;2022-09-02T10:35:04;98299.31;;;24.54;30.33
20394;BME280;10356;50.544;9.642;2022-09-02T10:37:41;98291.63;;;23.85;31.54
20394;BME280;10356;50.544;9.642;2022-09-02T10:40:12;98282.06;;;24.17;31.23
20394;BME280;10356;50.544;9.642;2022-09-02T10:42:53;98286.41;;;23.51;31.54
20394;BME280;10356;50.544;9.642;2022-09-02T10:45:30;98278.22;;;23.53;32.28
20394;BME280;10356;50.544;9.642;2022-09-02T10:48:08;98276.41;;;23.53;32.77
20394;BME280;10356;50.544;9.642;2022-09-02T10:50:44;98276.66;;;23.84;32.30
20394;BME280;10356;50.544;9.642;2022-09-02T10:53:28;98275.50;;;24.72;31.67
20394;BME280;10356;50.544;9.642;2022-09-02T10:55:59;98280.91;;;25.73;30.17
20394;BME280;10356;50.544;9.642;2022-09-02T10:58:36;98280.38;;;25.96;29.42
20394;BME280;10356;50.544;9.642;2022-09-02T11:01:05;98286.47;;;25.78;29.64
20394;BME280;10356;50.544;9.642;2022-09-02T11:03:36;98284.47;;;25.10;30.93
20394;BME280;10356;50.544;9.642;2022-09-02T11:06:08;98270.00;;;24.60;32.11
20394;BME280;10356;50.544;9.642;2022-09-02T11:08:41;98266.88;;;24.89;31.91
20394;BME280;10356;50.544;9.642;2022-09-02T11:11:12;98258.69;;;24.84;30.86
20394;BME280;10356;50.544;9.642;2022-09-02T11:13:53;98248.91;;;24.20;31.98
20394;BME280;10356;50.544;9.642;2022-09-02T11:16:26;98262.81;;;24.35;31.45
20394;BME280;10356;50.544;9.642;2022-09-02T11:19:00;98256.59;;;24.99;30.70
20394;BME280;10356;50.544;9.642;2022-09-02T11:21:41;98244.78;;;25.77;30.15
20394;BME280;10356;50.544;9.642;2022-09-02T11:24:16;98239.94;;;26.24;29.60
20394;BME280;10356;50.544;9.642;2022-09-02T11:26:53;98242.81;;;26.22;29.08
20394;BME280;10356;50.544;9.642;2022-09-02T11:29:30;98246.16;;;26.18;28.76
20394;BME280;10356;50.544;9.642;2022-09-02T11:32:03;98238.94;;;26.43;28.86
20394;BME280;10356;50.544;9.642;2022-09-02T11:34:35;98248.56;;;26.26;29.36
20394;BME280;10356;50.544;9.642;2022-09-02T11:37:06;98254.88;;;26.07;29.62
20394;BME280;10356;50.544;9.642;2022-09-02T11:39:40;98238.63;;;26.33;29.35
20394;BME280;10356;50.544;9.642;2022-09-02T11:42:26;98241.16;;;25.97;29.95
20394;BME280;10356;50.544;9.642;2022-09-02T11:45:10;98229.91;;;25.88;30.29
20394;BME280;10356;50.544;9.642;2022-09-02T11:47:48;98227.13;;;26.32;29.50
20394;BME280;10356;50.544;9.642;2022-09-02T11:50:33;98228.47;;;26.41;29.43
20394;BME280;10356;50.544;9.642;2022-09-02T11:53:19;98228.72;;;26.40;28.40
20394;BME280;10356;50.544;9.642;2022-09-02T11:55:52;98226.31;;;26.01;28.58
20394;BME280;10356;50.544;9.642;2022-09-02T11:58:32;98216.00;;;25.79;28.82
20394;BME280;10356;50.544;9.642;2022-09-02T12:01:05;98217.25;;;25.77;29.51
20394;BME280;10356;50.544;9.642;2022-09-02T12:03:42;98210.00;;;26.15;28.92
20394;BME280;10356;50.544;9.642;2022-09-02T12:06:13;98206.16;;;26.54;29.19
20394;BME280;10356;50.544;9.642;2022-09-02T12:09:02;98208.06;;;26.47;28.48
20394;BME280;10356;50.544;9.642;2022-09-02T12:11:45;98199.81;;;26.73;28.36
20394;BME280;10356;50.544;9.642;2022-09-02T12:17:32;98195.44;;;26.36;28.48
20394;BME280;10356;50.544;9.642;2022-09-02T12:20:00;98190.34;;;26.10;28.44
20394;BME280;10356;50.544;9.642;2022-09-02T12:22:32;98191.63;;;25.69;28.79
20394;BME280;10356;50.544;9.642;2022-09-02T12:25:03;98182.03;;;25.62;28.63
20394;BME280;10356;50.544;9.642;2022-09-02T12:27:34;98181.38;;;25.98;28.48
20394;BME280;10356;50.544;9.642;2022-09-02T12:30:04;98181.31;;;26.29;28.45
20394;BME280;10356;50.544;9.642;2022-09-02T12:35:53;98165.31;;;26.65;27.71
20394;BME280;10356;50.544;9.642;2022-09-02T12:38:32;98162.63;;;26.65;27.52
20394;BME280;10356;50.544;9.642;2022-09-02T12:41:20;98150.69;;;27.04;27.05
20394;BME280;10356;50.544;9.642;2022-09-02T12:44:00;98147.38;;;27.20;26.91
20394;BME280;10356;50.544;9.642;2022-09-02T12:46:43;98147.75;;;27.23;26.95
20394;BME280;10356;50.544;9.642;2022-09-02T12:49:24;98141.13;;;26.96;27.02
20394;BME280;10356;50.544;9.642;2022-09-02T12:51:54;98142.59;;;26.92;27.04
20394;BME280;10356;50.544;9.642;2022-09-02T12:54:25;98143.78;;;26.96;26.79
20394;BME280;10356;50.544;9.642;2022-09-02T12:56:55;98146.38;;;26.48;27.30
20394;BME280;10356;50.544;9.642;2022-09-02T12:59:28;98138.16;;;26.50;27.11
20394;BME280;10356;50.544;9.642;2022-09-02T13:02:03;98142.44;;;27.05;27.05
20394;BME280;10356;50.544;9.642;2022-09-02T13:04:37;98146.31;;;26.91;27.15
20394;BME280;10356;50.544;9.642;2022-09-02T13:10:25;98133.81;;;27.03;27.17
20394;BME280;10356;50.544;9.642;2022-09-02T13:13:31;98135.03;;;27.37;26.52
20394;BME280;10356;50.544;9.642;2022-09-02T13:16:11;98134.22;;;27.36;26.47
20394;BME280;10356;50.544;9.642;2022-09-02T13:19:00;98133.81;;;26.31;27.62
20394;BME280;10356;50.544;9.642;2022-09-02T13:25:04;98137.69;;;26.53;27.74
20394;BME280;10356;50.544;9.642;2022-09-02T13:28:02;98121.50;;;27.02;27.02
20394;BME280;10356;50.544;9.642;2022-09-02T13:30:51;98125.06;;;26.60;27.15
20394;BME280;10356;50.544;9.642;2022-09-02T13:33:24;98131.91;;;26.56;27.14
20394;BME280;10356;50.544;9.642;2022-09-02T13:35:53;98120.31;;;26.62;26.86